Time;durP1;ratioP1;P1;durP2;ratioP2;P2;SDS_P1;SDS_P2;PMS_P1;PMS_P2;Temp;Humidity;BMP_temperature;BMP_pressure;BME280_temperature;BME280_humidity;BME280_pressure;Samples;Min_cycle;Max_cycle;Signal;HPM_P1;HPM_P2
2021/04/06 00:00:40;;;;;;;5.33;1.07;;;1.60;99.90;;;2.31;70.24;100074.38;5011648;28;20227;-73
2021/04/06 00:03:13;;;;;;;9.30;1.23;;;1.60;99.90;;;2.32;69.98;100078.69;4997664;28;20662;-73
2021/04/06 00:05:40;;;;;;;4.80;1.00;;;1.60;99.90;;;2.31;70.03;100078.72;5016180;28;20195;-73
2021/04/06 00:08:10;;;;;;;6.90;1.00;;;1.50;99.90;;;2.22;69.90;100079.69;5015163;28;20224;-74
2021/04/06 00:10:44;;;;;;;7.37;1.17;;;1.50;99.90;;;2.14;70.49;100081.50;5000425;28;20218;-73
2021/04/06 00:13:11;;;;;;;6.90;1.20;;;1.40;99.90;;;2.07;70.31;100077.34;5000872;28;20198;-71
2021/04/06 00:15:39;;;;;;;8.60;1.07;;;1.40;99.90;;;2.06;70.97;100085.94;4993281;28;20563;-73
2021/04/06 00:18:11;;;;;;;4.90;1.00;;;1.40;99.90;;;2.05;70.90;100081.66;5027016;28;20573;-74
2021/04/06 00:20:42;;;;;;;5.33;0.93;;;1.30;99.90;;;2.04;70.90;100066.19;4999279;28;20214;-73
2021/04/06 00:23:13;;;;;;;4.70;1.00;;;1.30;99.90;;;2.05;71.28;100080.78;4999523;28;20617;-73
2021/04/06 00:25:47;;;;;;;5.07;0.60;;;1.30;99.90;;;2.00;70.79;100080.88;4999957;28;20199;-73
2021/04/06 00:28:25;;;;;;;6.80;1.33;;;1.20;99.90;;;1.92;71.41;100077.53;5001909;28;20560;-73
2021/04/06 00:30:54;;;;;;;7.03;1.00;;;1.20;99.90;;;1.89;71.70;100069.81;5001293;28;20561;-73
2021/04/06 00:33:27;;;;;;;6.60;1.00;;;1.20;99.90;;;1.91;71.69;100083.56;4993539;28;20198;-73
2021/04/06 00:35:57;;;;;;;5.63;1.17;;;1.20;99.90;;;1.94;71.58;100087.84;5006706;28;20272;-74
2021/04/06 00:38:29;;;;;;;2.27;0.70;;;1.20;99.90;;;1.97;71.92;100088.66;4998645;28;20549;-73
2021/04/06 00:41:00;;;;;;;5.63;1.23;;;1.20;99.90;;;2.00;71.64;100091.19;5017357;28;20747;-73
2021/04/06 00:43:35;;;;;;;6.73;1.03;;;1.20;99.90;;;1.99;71.66;100097.19;5025463;28;20228;-73
2021/04/06 00:46:04;;;;;;;5.20;0.70;;;1.20;99.90;;;2.01;71.71;100087.72;5006577;28;20186;-73
2021/04/06 00:48:33;;;;;;;6.80;1.00;;;1.20;99.90;;;2.07;71.62;100095.38;5006935;28;20727;-73
2021/04/06 00:51:10;;;;;;;4.23;0.83;;;1.30;99.90;;;2.06;71.70;100098.81;5017625;28;20222;-72
2021/04/06 00:53:56;;;;;;;5.93;0.83;;;1.30;99.90;;;1.98;71.65;100100.66;5016945;28;20310;-73
2021/04/06 00:56:24;;;;;;;7.47;0.97;;;1.20;99.90;;;1.94;72.03;100100.72;5004763;28;20198;-73
2021/04/06 00:58:53;;;;;;;6.13;1.07;;;1.20;99.90;;;1.85;72.34;100106.84;5009390;28;20610;-74
2021/04/06 01:01:40;;;;;;;5.20;0.83;;;1.10;99.90;;;1.88;72.62;100103.38;4996943;28;20183;-73
2021/04/06 01:04:10;;;;;;;4.10;0.77;;;1.10;99.90;;;1.88;72.35;100099.06;5007294;28;20248;-73
2021/04/06 01:07:10;;;;;;;5.73;1.30;;;1.10;99.90;;;1.88;72.62;100103.38;5022309;28;20298;-73
2021/04/06 01:09:44;;;;;;;9.67;0.80;;;1.10;99.90;;;1.88;72.82;100098.22;5010377;28;20229;-73
2021/04/06 01:12:13;;;;;;;6.17;1.00;;;1.10;99.90;;;1.85;72.80;100101.69;5004997;28;20569;-73
2021/04/06 01:14:43;;;;;;;4.63;1.00;;;1.10;99.90;;;1.81;73.13;100112.06;5022759;28;20199;-73
2021/04/06 01:17:13;;;;;;;2.63;0.70;;;1.10;99.90;;;1.77;73.55;100102.66;5012314;28;20229;-73
2021/04/06 01:19:41;;;;;;;3.40;0.80;;;1.00;99.90;;;1.76;73.48;100109.53;5008229;28;20218;-73
2021/04/06 01:22:10;;;;;;;8.50;1.13;;;1.00;99.90;;;1.78;73.64;100115.53;5009140;28;20190;-74
2021/04/06 01:24:41;;;;;;;3.50;0.90;;;1.00;99.90;;;1.78;73.64;100107.78;5001344;28;20203;-73
2021/04/06 01:27:13;;;;;;;2.67;0.87;;;1.00;99.90;;;1.76;74.06;100108.69;5025917;28;20201;-73
2021/04/06 01:29:40;;;;;;;4.13;0.87;;;1.00;99.90;;;1.74;73.94;100113.00;5017601;28;20246;-75
2021/04/06 01:32:07;;;;;;;3.87;0.97;;;1.00;99.90;;;1.71;74.58;100106.16;5048509;28;20217;-74
2021/04/06 01:34:35;;;;;;;3.13;0.90;;;1.00;99.90;;;1.74;74.57;100111.25;5025511;28;20204;-73
2021/04/06 01:37:01;;;;;;;5.63;1.03;;;1.00;99.90;;;1.73;74.43;100108.72;5035387;28;20190;-73
2021/04/06 01:39:29;;;;;;;4.43;0.97;;;1.00;99.90;;;1.71;74.52;100105.31;5046465;28;20309;-73
2021/04/06 01:42:02;;;;;;;3.60;1.00;;;1.00;99.90;;;1.69;74.91;100110.47;5037909;28;20217;-73
2021/04/06 01:44:30;;;;;;;5.53;1.67;;;1.00;99.90;;;1.71;74.91;100102.75;5041943;28;20205;-73
2021/04/06 01:46:57;;;;;;;4.10;1.13;;;1.00;99.90;;;1.72;74.67;100110.47;5028501;28;20185;-76
2021/04/06 01:49:25;;;;;;;4.20;1.10;;;1.00;99.90;;;1.73;75.09;100106.13;5042247;28;20289;-76
2021/04/06 01:51:55;;;;;;;3.30;1.20;;;1.00;99.90;;;1.74;74.72;100115.59;5035417;28;20226;-75
2021/04/06 01:54:22;;;;;;;4.73;1.10;;;1.00;99.90;;;1.68;74.78;100120.81;5044354;28;20186;-74
2021/04/06 01:56:53;;;;;;;9.97;1.40;;;0.90;99.90;;;1.66;75.27;100107.94;5024842;28;20202;-74
2021/04/06 01:59:24;;;;;;;10.97;1.40;;;1.00;99.90;;;1.69;75.04;100113.03;5020516;28;20221;-73
2021/04/06 02:01:55;;;;;;;5.80;1.10;;;1.00;99.90;;;1.69;75.39;100113.03;5027580;28;20214;-73
2021/04/06 02:04:23;;;;;;;7.93;1.37;;;0.90;99.90;;;1.70;75.09;100109.63;5022877;28;20683;-74
2021/04/06 02:06:52;;;;;;;5.90;1.23;;;0.90;99.90;;;1.68;75.29;100121.66;5032396;28;20610;-73
2021/04/06 02:09:20;;;;;;;10.13;1.13;;;0.90;99.90;;;1.67;75.54;100121.69;5019162;28;20225;-73
2021/04/06 02:11:49;;;;;;;2.20;0.80;;;0.90;99.90;;;1.64;75.30;100126.88;5000840;28;20214;-73
2021/04/06 02:14:18;;;;;;;3.43;1.23;;;0.90;99.90;;;1.65;75.36;100137.16;5012396;28;20678;-73
2021/04/06 02:16:52;;;;;;;5.20;1.27;;;0.90;99.90;;;1.63;75.43;100132.88;5023828;28;20209;-74
2021/04/06 02:19:28;;;;;;;5.63;1.43;;;0.90;99.90;;;1.63;75.55;100136.34;5005180;28;20290;-73
2021/04/06 02:21:57;;;;;;;4.30;1.20;;;0.90;99.90;;;1.66;75.42;100138.88;5002881;28;20610;-75
2021/04/06 02:24:35;;;;;;;5.93;1.37;;;0.90;99.90;;;1.70;75.26;100137.13;5006626;28;20205;-73
2021/04/06 02:27:07;;;;;;;5.53;1.43;;;0.90;99.90;;;1.68;75.50;100137.13;5002524;28;20197;-73
2021/04/06 02:29:39;;;;;;;1.57;0.70;;;0.90;99.90;;;1.70;75.26;100145.72;5018423;28;20223;-73
2021/04/06 02:32:10;;;;;;;7.90;1.33;;;0.90;99.90;;;1.68;75.26;100134.56;5010911;28;20785;-74
2021/04/06 02:34:43;;;;;;;4.70;1.33;;;0.90;99.90;;;1.69;75.26;100140.56;5005202;28;20213;-72
2021/04/06 02:37:21;;;;;;;5.07;1.30;;;0.90;99.90;;;1.71;75.40;100125.94;5046051;28;20332;-73
2021/04/06 02:39:51;;;;;;;7.60;1.23;;;0.90;99.90;;;1.75;75.36;100132.75;5016770;28;20593;-73
2021/04/06 02:42:30;;;;;;;8.27;1.60;;;1.00;99.90;;;1.79;75.36;100139.59;5008610;28;20218;-73
2021/04/06 02:45:09;;;;;;;4.47;1.30;;;1.00;99.90;;;1.80;75.37;100128.41;5023381;28;20205;-73
2021/04/06 02:47:41;;;;;;;6.37;1.43;;;1.00;99.90;;;1.76;75.17;100119.84;5003090;28;20222;-73
2021/04/06 02:50:10;;;;;;;7.03;1.20;;;1.00;99.90;;;1.73;75.44;100130.19;5010041;28;20272;-73
2021/04/06 02:52:38;;;;;;;10.87;1.50;;;0.90;99.90;;;1.73;75.41;100134.50;5004258;28;20291;-73
2021/04/06 02:55:10;;;;;;;5.77;1.40;;;0.90;99.90;;;1.67;75.48;100138.00;5009525;28;20302;-72
2021/04/06 02:57:41;;;;;;;3.63;1.20;;;0.90;99.90;;;1.69;75.53;100143.16;5000884;28;20539;-73
2021/04/06 03:00:10;;;;;;;6.37;1.40;;;0.90;99.90;;;1.68;75.47;100144.88;5010495;28;20206;-73
2021/04/06 03:02:41;;;;;;;4.47;1.10;;;0.90;99.90;;;1.64;75.63;100147.50;5020898;28;20253;-73
2021/04/06 03:05:09;;;;;;;5.00;1.20;;;0.90;99.90;;;1.62;75.72;100152.69;5009395;28;20201;-76
2021/04/06 03:07:46;;;;;;;5.80;1.40;;;0.80;99.90;;;1.61;75.88;100155.28;5032810;28;20583;-73
2021/04/06 03:10:19;;;;;;;4.43;1.00;;;0.80;99.90;;;1.59;75.68;100151.84;5034983;28;20205;-73
2021/04/06 03:12:48;;;;;;;4.80;1.00;;;0.80;99.90;;;1.56;75.88;100142.41;5015224;28;20702;-73
2021/04/06 03:15:25;;;;;;;4.90;1.40;;;0.80;99.90;;;1.56;76.18;100147.56;5018239;28;20285;-73
2021/04/06 03:17:56;;;;;;;5.80;1.43;;;0.80;99.90;;;1.59;76.21;100144.94;5004110;28;20190;-73
2021/04/06 03:20:25;;;;;;;4.40;1.23;;;0.80;99.90;;;1.57;76.38;100131.25;5008359;28;20309;-73
2021/04/06 03:22:54;;;;;;;6.20;1.47;;;0.80;99.90;;;1.59;76.03;100142.38;5010478;28;20261;-73
2021/04/06 03:25:22;;;;;;;6.97;1.40;;;0.80;99.90;;;1.59;76.51;100141.53;5003445;28;20213;-73
2021/04/06 03:27:51;;;;;;;4.17;1.33;;;0.80;99.90;;;1.57;76.36;100133.84;5003743;28;20914;-73
2021/04/06 03:30:32;;;;;;;8.30;2.50;;;0.80;99.90;;;1.54;75.88;100135.59;5023250;28;20237;-71
2021/04/06 03:33:01;;;;;;;6.80;1.63;;;0.70;99.90;;;1.54;76.48;100133.00;5011458;28;20194;-73
2021/04/06 03:35:28;;;;;;;5.37;1.20;;;0.70;99.90;;;1.54;76.53;100133.84;5012444;28;20201;-73
2021/04/06 03:37:56;;;;;;;5.73;1.70;;;0.70;99.90;;;1.55;76.46;100138.16;5016840;28;20197;-73
2021/04/06 03:40:22;;;;;;;8.00;1.57;;;0.70;99.90;;;1.56;76.42;100137.25;5025776;28;20226;-72
2021/04/06 03:42:49;;;;;;;9.87;1.70;;;0.70;99.90;;;1.53;76.57;100133.88;5005050;28;20566;-73
2021/04/06 03:45:18;;;;;;;9.63;1.80;;;0.70;99.90;;;1.52;76.51;100137.31;5007896;28;20211;-73
2021/04/06 03:47:56;;;;;;;4.83;1.57;;;0.70;99.90;;;1.47;76.73;100139.09;5001675;28;20256;-73
2021/04/06 03:50:39;;;;;;;9.00;1.70;;;0.70;99.90;;;1.47;77.00;100137.38;5006397;28;20601;-73
2021/04/06 03:53:11;;;;;;;4.30;1.30;;;0.70;99.90;;;1.47;76.81;100136.50;5006189;28;20198;-72
2021/04/06 03:55:39;;;;;;;6.23;1.60;;;0.70;99.90;;;1.47;77.02;100137.38;5000943;28;20248;-73
2021/04/06 03:58:11;;;;;;;8.00;1.70;;;0.60;99.90;;;1.48;77.35;100128.75;4998408;28;20199;-72
2021/04/06 04:00:38;;;;;;;9.80;2.00;;;0.60;99.90;;;1.47;76.86;100127.06;5027714;28;20624;-73
2021/04/06 04:03:04;;;;;;;8.63;1.70;;;0.60;99.90;;;1.47;77.12;100127.06;5004599;28;20627;-74
2021/04/06 04:05:31;;;;;;;8.47;1.40;;;0.60;99.90;;;1.49;77.19;100129.63;5030552;28;20193;-73
2021/04/06 04:07:58;;;;;;;9.33;2.50;;;0.70;99.90;;;1.49;77.04;100125.31;5029838;28;20239;-73
2021/04/06 04:10:26;;;;;;;6.00;1.63;;;0.60;99.90;;;1.48;77.04;100126.19;5006606;28;20699;-73
2021/04/06 04:12:52;;;;;;;8.93;1.57;;;0.60;99.90;;;1.47;77.36;100121.06;5018288;28;20202;-73
2021/04/06 04:15:19;;;;;;;6.50;1.33;;;0.60;99.90;;;1.47;77.16;100132.22;5007725;28;20202;-73
2021/04/06 04:17:47;;;;;;;6.13;1.80;;;0.60;99.90;;;1.43;76.94;100130.53;5004196;28;20721;-74
2021/04/06 04:20:15;;;;;;;6.03;1.70;;;0.60;99.90;;;1.46;77.23;100130.50;5026834;28;20607;-71
2021/04/06 04:22:42;;;;;;;4.00;1.63;;;0.60;99.90;;;1.44;76.89;100128.81;4998694;28;20338;-73
2021/04/06 04:25:12;;;;;;;6.57;1.67;;;0.60;99.90;;;1.45;77.54;100121.06;5009205;28;20206;-74
2021/04/06 04:27:40;;;;;;;7.37;1.80;;;0.60;99.90;;;1.49;77.41;100119.31;5009195;28;20280;-73
2021/04/06 04:30:11;;;;;;;10.53;1.90;;;0.60;99.90;;;1.47;77.10;100127.06;5023065;28;20210;-73
2021/04/06 04:32:38;;;;;;;5.53;1.90;;;0.60;99.90;;;1.45;77.10;100118.50;5016173;28;20202;-74
2021/04/06 04:35:06;;;;;;;6.27;1.77;;;0.60;99.90;;;1.46;77.35;100109.88;5025782;28;20697;-72
2021/04/06 04:37:32;;;;;;;9.50;1.73;;;0.60;99.90;;;1.50;77.23;100110.72;5018810;28;20193;-73
2021/04/06 04:39:59;;;;;;;6.30;1.80;;;0.60;99.90;;;1.49;77.39;100107.25;5005240;28;20248;-73
2021/04/06 04:42:26;;;;;;;5.20;1.70;;;0.60;99.90;;;1.48;77.31;100109.88;5022518;28;20206;-74
2021/04/06 04:44:52;;;;;;;3.97;1.27;;;0.60;99.90;;;1.44;77.35;100121.94;5012094;28;20566;-73
2021/04/06 04:47:19;;;;;;;9.37;1.80;;;0.60;99.90;;;1.38;76.89;100119.44;5007179;28;20197;-72
2021/04/06 04:49:45;;;;;;;5.40;1.47;;;0.50;99.90;;;1.38;77.20;100122.00;5012494;28;20237;-73
2021/04/06 04:52:11;;;;;;;5.87;1.40;;;0.50;99.90;;;1.35;77.32;100109.16;5033175;28;20193;-72
2021/04/06 04:54:38;;;;;;;3.93;1.30;;;0.50;99.90;;;1.32;77.17;100106.63;5033157;28;20189;-72
2021/04/06 04:57:05;;;;;;;11.17;2.10;;;0.50;99.90;;;1.32;77.29;100121.22;4997468;28;20641;-72
2021/04/06 04:59:33;;;;;;;8.37;1.87;;;0.50;99.90;;;1.36;77.48;100123.72;5006489;28;20221;-73
2021/04/06 05:02:01;;;;;;;5.00;1.87;;;0.50;99.90;;;1.35;77.21;100124.63;5021018;28;20213;-73
2021/04/06 05:04:28;;;;;;;5.33;1.50;;;0.50;99.90;;;1.34;77.50;100119.50;5007857;28;20199;-73
2021/04/06 05:06:54;;;;;;;5.93;1.70;;;0.50;99.90;;;1.34;77.09;100119.50;5043680;28;20228;-70
2021/04/06 05:09:21;;;;;;;6.63;1.97;;;0.50;99.90;;;1.31;77.08;100120.34;5025593;28;20221;-72
2021/04/06 05:11:47;;;;;;;7.10;2.10;;;0.50;99.90;;;1.34;77.19;100117.75;5009746;28;20676;-73
2021/04/06 05:14:13;;;;;;;6.60;2.03;;;0.50;99.90;;;1.35;77.52;100118.59;5025522;28;20214;-72
2021/04/06 05:16:41;;;;;;;6.83;2.03;;;0.60;99.90;;;1.35;77.17;100118.59;5000155;28;20249;-72
2021/04/06 05:19:07;;;;;;;6.93;1.83;;;0.60;99.90;;;1.29;77.38;100119.50;5008572;28;20281;-72
2021/04/06 05:21:33;;;;;;;10.63;2.10;;;0.50;99.90;;;1.29;77.47;100116.94;5016103;28;21451;-73
2021/04/06 05:24:00;;;;;;;6.23;1.70;;;0.50;99.90;;;1.33;77.54;100118.63;5009464;28;20659;-73
2021/04/06 05:26:26;;;;;;;5.30;1.70;;;0.60;99.90;;;1.38;77.33;100116.84;4997782;28;20253;-73
2021/04/06 05:28:53;;;;;;;8.17;2.03;;;0.60;99.90;;;1.40;77.13;100117.69;4999908;28;20226;-72
2021/04/06 05:31:19;;;;;;;10.43;2.00;;;0.70;99.90;;;1.44;77.18;100116.78;5017173;28;20201;-74
2021/04/06 05:33:46;;;;;;;8.97;1.90;;;0.70;99.90;;;1.51;77.25;100115.00;5037236;28;20582;-73
2021/04/06 05:36:13;;;;;;;8.67;2.13;;;0.70;99.90;;;1.57;77.00;100113.22;5009921;28;20661;-73
2021/04/06 05:38:39;;;;;;;7.50;1.97;;;0.80;99.90;;;1.59;76.87;100116.59;5017712;28;20217;-74
2021/04/06 05:41:05;;;;;;;11.67;2.37;;;0.90;99.90;;;1.60;76.77;100128.63;5020647;28;20547;-72
2021/04/06 05:43:34;;;;;;;7.37;1.93;;;0.90;99.90;;;1.62;76.86;100116.59;5015859;28;20193;-73
2021/04/06 05:46:04;;;;;;;10.03;2.07;;;0.90;99.90;;;1.63;76.60;100117.41;5003864;28;20191;-72
2021/04/06 05:48:33;;;;;;;9.70;1.93;;;0.90;99.90;;;1.61;77.00;100109.72;5017668;28;20205;-72
2021/04/06 05:51:01;;;;;;;7.93;2.30;;;0.90;99.90;;;1.59;76.52;100116.59;5022069;28;20198;-71
2021/04/06 05:53:27;;;;;;;11.10;2.20;;;0.90;99.90;;;1.61;76.61;100116.63;5016379;28;20471;-73
2021/04/06 05:55:57;;;;;;;8.63;2.00;;;0.90;99.90;;;1.65;76.84;100115.69;5012065;28;20200;-75
2021/04/06 05:58:24;;;;;;;7.70;1.93;;;1.00;99.90;;;1.67;76.37;100109.66;5025623;28;20197;-75
2021/04/06 06:00:50;;;;;;;7.33;2.47;;;1.00;99.90;;;1.69;76.59;100110.47;5023865;28;20635;-74
2021/04/06 06:03:17;;;;;;;7.87;2.07;;;1.00;99.90;;;1.72;76.69;100107.88;5017793;28;20224;-73
2021/04/06 06:05:44;;;;;;;6.97;2.13;;;1.00;99.90;;;1.76;76.21;100109.53;5009684;28;20244;-72
2021/04/06 06:08:14;;;;;;;6.97;2.23;;;1.00;99.90;;;1.79;76.38;100109.50;5014094;28;20252;-72
2021/04/06 06:10:42;;;;;;;7.33;2.00;;;1.10;99.90;;;1.85;76.34;100111.16;5039975;28;20218;-71
2021/04/06 06:13:19;;;;;;;7.40;2.00;;;1.10;99.90;;;1.88;76.18;100114.53;5014579;28;20186;-72
2021/04/06 06:16:13;;;;;;;7.70;2.33;;;1.20;99.90;;;1.92;76.08;100121.38;5008170;28;20208;-72
2021/04/06 06:19:08;;;;;;;13.13;2.57;;;1.20;99.90;;;1.98;75.66;100113.56;5020031;28;20233;-73
2021/04/06 06:21:43;;;;;;;6.43;1.80;;;1.20;99.90;;;1.99;75.59;100122.97;5000969;28;20688;-72
2021/04/06 06:24:22;;;;;;;8.23;1.87;;;1.30;99.90;;;2.04;75.81;100120.38;5031957;28;20244;-72
2021/04/06 06:26:49;;;;;;;10.53;2.13;;;1.30;99.90;;;2.14;75.77;100120.19;5012687;28;20186;-72
2021/04/06 06:29:19;;;;;;;10.77;2.40;;;1.50;99.90;;;2.27;75.56;100119.19;5016504;28;20221;-71
2021/04/06 06:31:48;;;;;;;6.67;1.67;;;1.60;99.90;;;2.35;75.01;100117.34;5012433;28;20195;-73
2021/04/06 06:34:33;;;;;;;9.33;2.00;;;1.60;99.90;;;2.35;75.01;100113.91;5011619;28;20197;-73
2021/04/06 06:37:17;;;;;;;8.57;2.23;;;1.60;99.90;;;2.35;74.92;100114.75;5020073;28;20209;-71
2021/04/06 06:39:57;;;;;;;5.80;1.60;;;1.70;99.90;;;2.41;75.04;100116.41;5020114;28;20221;-72
2021/04/06 06:42:27;;;;;;;7.27;1.50;;;1.80;99.90;;;2.40;74.29;100110.38;5034201;28;20197;-74
2021/04/06 06:44:54;;;;;;;7.50;1.93;;;1.80;99.90;;;2.40;74.71;100107.81;5052154;28;20197;-74
2021/04/06 06:47:22;;;;;;;8.13;2.30;;;1.80;99.90;;;2.42;74.71;100107.78;5041307;28;20217;-73
2021/04/06 06:49:52;;;;;;;7.30;2.13;;;1.80;99.90;;;2.41;74.72;100109.50;5042843;28;20215;-73
2021/04/06 06:52:33;;;;;;;15.23;2.17;;;1.90;99.90;;;2.55;74.85;100120.47;5033924;28;20181;-73
2021/04/06 06:55:18;;;;;;;12.47;2.33;;;2.00;99.90;;;2.68;74.64;100099.66;5028383;28;20191;-74
2021/04/06 06:57:47;;;;;;;12.57;2.37;;;2.20;99.90;;;2.71;74.12;100109.91;5025770;28;20198;-73
2021/04/06 07:00:17;;;;;;;9.40;2.20;;;2.20;99.90;;;2.73;74.07;100096.09;5057896;28;20220;-71
2021/04/06 07:02:44;;;;;;;9.40;2.20;;;2.20;99.90;;;2.78;74.09;100102.03;5013991;28;20671;-71
2021/04/06 07:05:18;;;;;;;9.63;2.03;;;2.30;99.90;;;2.90;73.86;100096.66;5010262;28;20213;-73
2021/04/06 07:08:05;;;;;;;7.87;2.20;;;2.40;99.90;;;3.00;73.65;100095.63;5014411;28;20248;-72
2021/04/06 07:10:35;;;;;;;8.73;2.20;;;2.40;99.90;;;3.07;73.79;100098.97;5039417;28;20308;-72
2021/04/06 07:13:10;;;;;;;6.60;1.93;;;2.50;99.90;;;3.14;73.37;100098.84;5013033;28;20214;-72
2021/04/06 07:15:39;;;;;;;8.37;1.93;;;2.60;99.90;;;3.18;73.19;100102.22;4999704;28;20209;-74
2021/04/06 07:18:11;;;;;;;10.27;2.40;;;2.70;99.90;;;3.27;73.21;100099.44;5011427;28;20232;-73
2021/04/06 07:20:42;;;;;;;11.27;2.30;;;2.80;99.90;;;3.37;73.03;100093.22;5049762;28;20248;-73
2021/04/06 07:23:13;;;;;;;6.43;1.90;;;2.90;99.90;;;3.50;72.79;100099.91;5017702;28;20197;-73
2021/04/06 07:25:46;;;;;;;10.13;2.07;;;3.10;99.90;;;3.60;72.61;100088.50;5022321;28;20226;-72
2021/04/06 07:28:16;;;;;;;12.03;2.53;;;3.30;99.90;;;3.76;72.64;100093.31;5003450;28;20882;-72
2021/04/06 07:30:45;;;;;;;5.33;2.00;;;3.50;99.90;;;3.88;71.99;100085.28;5032143;28;20556;-72
2021/04/06 07:33:14;;;;;;;7.60;1.90;;;3.60;99.90;;;3.97;71.40;100092.00;5016309;28;20233;-73
2021/04/06 07:35:42;;;;;;;11.23;2.50;;;3.80;99.90;;;4.02;71.16;100097.94;5006739;28;20204;-72
2021/04/06 07:38:08;;;;;;;10.50;2.40;;;3.80;99.90;;;4.05;71.23;100090.13;5016558;28;20662;-72
2021/04/06 07:40:36;;;;;;;7.47;2.60;;;3.80;99.90;;;4.13;71.33;100085.63;5030232;28;20213;-74
2021/04/06 07:43:06;;;;;;;10.23;2.70;;;4.00;99.90;;;4.28;71.08;100080.13;5009284;28;20208;-73
2021/04/06 07:45:42;;;;;;;12.13;2.57;;;4.10;99.90;;;4.39;70.59;100085.88;5023827;28;20186;-74
2021/04/06 07:48:45;;;;;;;9.65;2.08;;;4.30;99.90;;;4.53;70.69;100086.44;5021946;28;20209;-73
2021/04/06 07:51:23;;;;;;;10.97;2.80;;;4.40;99.90;;;4.61;70.25;100089.69;5028074;28;20248;-73
2021/04/06 07:54:06;;;;;;;11.00;2.70;;;4.50;99.90;;;4.65;70.13;100093.91;5012470;28;20570;-72
2021/04/06 07:56:57;;;;;;;12.83;2.80;;;4.60;99.90;;;4.56;69.71;100083.75;5004939;28;20198;-71
2021/04/06 07:59:54;;;;;;;8.73;2.55;;;4.50;99.90;;;4.37;69.59;100087.66;5021872;28;20224;-72
2021/04/06 08:02:24;;;;;;;11.40;2.40;;;4.30;99.90;;;4.29;69.98;100086.13;5011219;28;20212;-72
2021/04/06 08:04:57;;;;;;;8.43;2.20;;;4.20;99.90;;;4.31;70.08;100087.81;5014497;28;20188;-71
2021/04/06 08:07:26;;;;;;;11.43;2.67;;;4.20;99.90;;;4.45;70.42;100090.94;5018637;28;20201;-72
2021/04/06 08:09:54;;;;;;;12.40;2.60;;;4.30;99.90;;;4.62;69.87;100095.72;5016533;28;20224;-73
2021/04/06 08:12:24;;;;;;;11.75;2.65;;;4.50;99.90;;;4.75;69.60;100104.91;5014624;28;20244;-74
2021/04/06 08:14:54;;;;;;;7.70;2.37;;;4.60;99.90;;;4.63;69.18;100094.81;5012563;28;20205;-74
2021/04/06 08:17:46;;;;;;;9.70;2.50;;;4.50;99.90;;;4.52;69.40;100092.47;5003531;28;20190;-75
2021/04/06 08:20:37;;;;;;;8.37;2.33;;;4.40;99.90;;;4.46;69.34;100097.81;5047036;28;20237;-73
2021/04/06 08:23:06;;;;;;;9.82;2.08;;;4.30;99.90;;;4.40;69.75;100092.78;5008843;28;20267;-72
2021/04/06 08:25:52;;;;;;;8.57;2.40;;;4.30;99.90;;;4.54;69.85;100100.22;5012062;28;20194;-73
2021/04/06 08:28:38;;;;;;;8.63;2.40;;;4.40;99.90;;;4.59;69.45;100096.63;5002273;28;20202;-73
2021/04/06 08:31:33;;;;;;;8.55;2.80;;;4.50;99.90;;;4.64;69.13;100096.53;5015172;28;20206;-74
2021/04/06 08:34:35;;;;;;;16.57;2.90;;;4.60;99.90;;;4.75;69.39;100099.72;5033576;28;20198;-73
2021/04/06 08:37:17;;;;;;;8.27;2.70;;;4.70;99.90;;;4.75;69.20;100097.13;5005998;28;20205;-73
2021/04/06 08:39:44;;;;;;;10.27;2.83;;;4.80;99.90;;;4.85;69.46;100106.38;5035171;28;20240;-73
2021/04/06 08:42:15;;;;;;;13.80;2.75;;;4.90;99.90;;;4.95;68.99;100103.53;5025314;28;20206;-73
2021/04/06 08:44:46;;;;;;;13.30;2.80;;;5.00;99.90;;;4.94;68.96;100112.19;5024648;28;20194;-73
2021/04/06 08:47:46;;;;;;;10.15;2.65;;;4.90;99.90;;;4.93;68.95;100115.69;5005775;28;20277;-71
2021/04/06 08:50:31;;;;;;;9.48;2.70;;;4.90;99.90;;;4.89;69.13;100108.84;5017883;28;20228;-73
2021/04/06 08:52:59;;;;;;;9.02;2.67;;;5.00;99.90;;;4.86;69.04;100108.94;5014688;28;20610;-73
2021/04/06 08:55:26;;;;;;;8.18;2.30;;;4.90;99.90;;;4.84;69.21;100118.47;5027010;28;20260;-73
2021/04/06 08:57:58;;;;;;;11.15;2.60;;;4.80;99.90;;;4.81;69.17;100115.97;5011531;28;20301;-74
2021/04/06 09:00:27;;;;;;;11.30;2.60;;;4.80;99.90;;;4.83;69.56;100124.56;5017861;28;20242;-73
2021/04/06 09:03:04;;;;;;;10.98;2.95;;;4.80;99.90;;;4.81;70.09;100126.34;5015449;28;20211;-74
2021/04/06 09:05:31;;;;;;;9.98;2.67;;;4.70;99.90;;;4.85;70.59;100127.13;5009585;28;20193;-71
2021/04/06 09:07:57;;;;;;;10.75;2.70;;;4.70;99.90;;;4.90;70.87;100126.13;5021614;28;20659;-73
2021/04/06 09:10:23;;;;;;;10.25;2.58;;;4.80;99.90;;;4.97;70.87;100122.47;5034945;28;20229;-74
2021/04/06 09:12:52;;;;;;;12.45;2.42;;;4.80;99.90;;;5.02;70.87;100125.81;5027057;28;20194;-72
2021/04/06 09:15:22;;;;;;;12.43;3.60;;;4.80;99.90;;;5.12;70.80;100122.09;5013908;28;20195;-71
2021/04/06 09:17:49;;;;;;;16.00;3.30;;;5.00;99.90;;;5.35;70.14;100118.06;5008709;28;20194;-72
2021/04/06 09:20:18;;;;;;;12.10;3.00;;;5.20;99.90;;;5.58;70.03;100120.88;5009143;28;20768;-72
2021/04/06 09:22:50;;;;;;;12.23;3.20;;;5.50;99.90;;;5.84;70.02;100118.47;5012121;28;20327;-74
2021/04/06 09:25:19;;;;;;;12.65;2.85;;;5.90;99.90;;;5.90;69.06;100107.91;5010734;28;20205;-75
2021/04/06 09:27:52;;;;;;;15.93;3.47;;;6.00;99.90;;;5.81;68.54;100113.34;5022585;28;20268;-71
2021/04/06 09:30:31;;;;;;;12.38;2.70;;;5.90;99.90;;;5.62;68.19;100109.53;5026908;28;21105;-72
2021/04/06 09:32:59;;;;;;;11.43;2.17;;;5.70;99.90;;;5.64;68.85;100105.16;5004574;28;20210;-71
2021/04/06 09:35:27;;;;;;;9.75;2.72;;;5.70;99.90;;;5.62;68.30;100110.41;5003574;28;20194;-72
2021/04/06 09:37:58;;;;;;;13.35;2.78;;;5.60;99.90;;;5.63;67.77;100111.22;5000642;28;20565;-73
2021/04/06 09:40:32;;;;;;;9.50;2.85;;;5.60;99.90;;;5.73;67.83;100110.09;5009381;28;20225;-72
2021/04/06 09:43:00;;;;;;;10.98;2.63;;;5.70;99.90;;;5.75;66.73;100108.31;5006326;28;20213;-72
2021/04/06 09:45:27;;;;;;;13.55;2.83;;;5.70;99.90;;;5.72;66.64;100101.47;5005860;28;20209;-72
2021/04/06 09:47:54;;;;;;;12.60;2.70;;;5.80;99.90;;;5.76;66.55;100099.66;5010026;28;20329;-73
2021/04/06 09:50:22;;;;;;;10.07;2.63;;;5.80;99.90;;;5.95;66.19;100099.09;5031309;28;20310;-73
2021/04/06 09:52:49;;;;;;;9.60;2.25;;;6.00;99.90;;;6.10;65.60;100096.06;5001632;28;20186;-74
2021/04/06 09:55:17;;;;;;;14.15;2.88;;;6.20;99.90;;;6.19;64.88;100094.94;5006115;28;20277;-73
2021/04/06 09:57:47;;;;;;;9.18;2.13;;;6.30;99.90;;;6.13;64.29;100090.75;5008108;28;20193;-73
2021/04/06 10:00:18;;;;;;;11.77;2.55;;;6.30;99.90;;;6.03;64.13;100097.13;5021979;28;20729;-72
2021/04/06 10:03:04;;;;;;;15.82;2.67;;;6.20;99.90;;;5.99;64.08;100087.75;5018793;28;20199;-74
2021/04/06 10:05:31;;;;;;;12.05;2.50;;;6.10;99.90;;;6.02;64.26;100082.44;5015471;28;21184;-73
2021/04/06 10:07:58;;;;;;;8.70;2.10;;;6.10;99.90;;;6.13;63.69;100079.50;5011792;28;20610;-73
2021/04/06 10:10:28;;;;;;;8.90;2.20;;;6.20;99.90;;;6.09;63.08;100075.31;5005642;28;20230;-73
2021/04/06 10:12:56;;;;;;;12.20;2.30;;;6.10;99.90;;;6.18;63.24;100067.25;5019066;28;20711;-73
2021/04/06 10:15:26;;;;;;;8.75;2.25;;;6.30;99.90;;;6.28;62.64;100066.91;5013059;28;21251;-74
2021/04/06 10:17:54;;;;;;;11.23;2.50;;;6.30;99.90;;;6.27;62.44;100072.16;5017087;28;20204;-72
2021/04/06 10:20:24;;;;;;;8.57;2.10;;;6.30;99.90;;;6.23;62.49;100065.34;5008290;28;20214;-73
2021/04/06 10:22:53;;;;;;;10.60;2.72;;;6.20;99.90;;;6.31;62.48;100066.81;5015779;28;20276;-73
2021/04/06 10:25:25;;;;;;;11.48;2.42;;;6.30;99.90;;;6.32;62.15;100065.94;4997632;28;20216;-73
2021/04/06 10:27:53;;;;;;;7.63;1.98;;;6.30;99.90;;;6.23;62.21;100073.16;5007432;28;20675;-73
2021/04/06 10:30:31;;;;;;;9.25;2.13;;;6.10;99.90;;;6.12;62.46;100059.66;5015747;28;20231;-73
2021/04/06 10:33:07;;;;;;;9.52;1.92;;;6.00;99.90;;;5.92;63.31;100059.38;5003943;28;20182;-72
2021/04/06 10:35:37;;;;;;;10.85;2.40;;;5.70;99.90;;;5.70;64.47;100061.72;5006579;28;20198;-73
2021/04/06 10:38:06;;;;;;;10.45;2.28;;;5.50;99.90;;;5.72;65.23;100052.16;5025500;28;20200;-73
2021/04/06 10:40:38;;;;;;;10.13;2.33;;;5.40;99.90;;;5.86;65.34;100044.00;5026645;28;20217;-72
2021/04/06 10:43:09;;;;;;;9.77;2.30;;;5.60;99.90;;;6.06;65.26;100044.25;5008628;28;20194;-71